createdAt,value
2023-05-24T00:00:46.626Z,12.36
2023-05-24T00:03:15.452Z,12.35
2023-05-24T00:05:46.737Z,12.31
2023-05-24T00:08:15.979Z,12.29
2023-05-24T00:10:44.050Z,12.26
2023-05-24T00:13:11.908Z,12.24
2023-05-24T00:15:39.626Z,12.22
2023-05-24T00:18:07.490Z,12.18
2023-05-24T00:20:35.262Z,12.19
2023-05-24T00:23:04.473Z,12.18
2023-05-24T00:25:32.257Z,12.15
2023-05-24T00:28:00.034Z,12.18
2023-05-24T00:30:27.820Z,12.17
2023-05-24T00:32:55.627Z,12.14
2023-05-24T00:35:23.407Z,12.13
2023-05-24T00:37:51.125Z,12.10
2023-05-24T00:40:20.536Z,12.07
2023-05-24T00:42:48.365Z,12.07
2023-05-24T00:45:16.163Z,12.06
2023-05-24T00:47:44.096Z,12.04
2023-05-24T00:50:13.225Z,12.03
2023-05-24T00:52:42.210Z,12.00
2023-05-24T00:55:10.972Z,11.96
2023-05-24T00:57:41.107Z,11.90
2023-05-24T01:00:11.237Z,11.95
2023-05-24T01:02:39.107Z,11.95
2023-05-24T01:05:08.014Z,11.91
2023-05-24T01:07:41.112Z,11.83
2023-05-24T01:10:16.428Z,11.84
2023-05-24T01:12:54.977Z,11.79
2023-05-24T01:15:25.831Z,11.82
2023-05-24T01:18:01.878Z,11.78
2023-05-24T01:20:31.761Z,11.75
2023-05-24T01:23:08.396Z,11.72
2023-05-24T01:25:53.820Z,11.69
2023-05-24T01:28:23.669Z,11.65
2023-05-24T01:30:51.431Z,11.59
2023-05-24T01:33:19.262Z,11.58
2023-05-24T01:35:46.992Z,11.51
2023-05-24T01:38:15.874Z,11.56
2023-05-24T01:40:44.171Z,11.55
2023-05-24T01:43:17.220Z,11.53
2023-05-24T01:45:55.878Z,11.49
2023-05-24T01:48:31.447Z,11.49
2023-05-24T01:51:00.188Z,11.47
2023-05-24T01:53:32.986Z,11.48
2023-05-24T01:56:03.629Z,11.48
2023-05-24T01:58:31.573Z,11.46
2023-05-24T02:01:00.933Z,11.43
2023-05-24T02:03:28.774Z,11.41
2023-05-24T02:05:56.488Z,11.39
2023-05-24T02:08:24.364Z,11.39
2023-05-24T02:10:52.132Z,11.40
2023-05-24T02:13:20.187Z,11.40
2023-05-24T02:15:48.007Z,11.37
2023-05-24T02:18:18.639Z,11.40
2023-05-24T02:20:46.996Z,11.40
2023-05-24T02:23:14.852Z,11.41
2023-05-24T02:25:42.602Z,11.44
2023-05-24T02:28:10.446Z,11.45
2023-05-24T02:30:38.632Z,11.45
2023-05-24T02:33:06.753Z,11.47
2023-05-24T02:35:36.017Z,11.47
2023-05-24T02:38:06.583Z,11.46
2023-05-24T02:40:34.691Z,11.45
2023-05-24T02:43:02.469Z,11.44
2023-05-24T02:45:30.410Z,11.40
2023-05-24T02:47:58.226Z,11.41
2023-05-24T02:50:25.931Z,11.41
2023-05-24T02:52:54.972Z,11.43
2023-05-24T02:55:22.721Z,11.43
2023-05-24T02:57:50.454Z,11.42
2023-05-24T03:00:19.214Z,11.41
2023-05-24T03:02:47.856Z,11.40
2023-05-24T03:05:15.882Z,11.38
2023-05-24T03:07:43.692Z,11.38
2023-05-24T03:10:15.161Z,11.38
2023-05-24T03:12:43.751Z,11.37
2023-05-24T03:15:12.137Z,11.34
2023-05-24T03:17:39.951Z,11.35
2023-05-24T03:20:09.153Z,11.35
2023-05-24T03:22:36.884Z,11.32
2023-05-24T03:25:04.869Z,11.29
2023-05-24T03:27:34.010Z,11.27
2023-05-24T03:30:01.844Z,11.26
2023-05-24T03:32:29.641Z,11.27
2023-05-24T03:34:59.416Z,11.29
2023-05-24T03:37:27.083Z,11.27
2023-05-24T03:39:54.946Z,11.27
2023-05-24T03:42:22.916Z,11.26
2023-05-24T03:44:51.996Z,11.27
2023-05-24T03:47:19.679Z,11.28
2023-05-24T03:49:47.455Z,11.28
2023-05-24T03:52:15.346Z,11.26
2023-05-24T03:54:43.123Z,11.27
2023-05-24T03:57:10.851Z,11.25
2023-05-24T03:59:40.469Z,11.24
2023-05-24T04:02:10.725Z,11.23
2023-05-24T04:04:38.520Z,11.25
2023-05-24T04:07:07.980Z,11.26
2023-05-24T04:09:35.777Z,11.29
2023-05-24T04:12:03.594Z,11.30
2023-05-24T04:14:31.361Z,11.31
2023-05-24T04:16:59.204Z,11.31
2023-05-24T04:19:28.683Z,11.31
2023-05-24T04:21:56.516Z,11.30
2023-05-24T04:24:24.263Z,11.28
2023-05-24T04:26:52.013Z,11.27
2023-05-24T04:29:19.897Z,11.27
2023-05-24T04:31:48.915Z,11.23
2023-05-24T04:34:16.876Z,11.25
2023-05-24T04:36:47.578Z,11.26
2023-05-24T04:39:15.887Z,11.29
2023-05-24T04:41:43.614Z,11.27
2023-05-24T04:44:11.419Z,11.29
2023-05-24T04:46:39.256Z,11.31
2023-05-24T04:49:08.511Z,11.33
2023-05-24T04:51:38.552Z,11.33
2023-05-24T04:54:09.100Z,11.35
2023-05-24T04:56:38.516Z,11.36
2023-05-24T04:59:06.932Z,11.40
2023-05-24T05:01:35.163Z,11.43
2023-05-24T05:04:05.312Z,11.44
2023-05-24T05:06:34.917Z,11.45
2023-05-24T05:09:02.903Z,11.44
2023-05-24T05:11:32.034Z,11.43
2023-05-24T05:13:59.770Z,11.40
2023-05-24T05:16:27.477Z,11.40
2023-05-24T05:18:55.249Z,11.43
2023-05-24T05:21:23.000Z,11.40
2023-05-24T05:23:50.783Z,11.43
2023-05-24T05:26:18.727Z,11.43
2023-05-24T05:28:47.876Z,11.47
2023-05-24T05:31:15.619Z,11.49
2023-05-24T05:33:43.327Z,11.45
2023-05-24T05:36:11.068Z,11.46
2023-05-24T05:38:38.788Z,11.46
2023-05-24T05:41:07.249Z,11.46
2023-05-24T05:43:35.056Z,11.48
2023-05-24T05:46:04.265Z,11.48
2023-05-24T05:48:32.021Z,11.48
2023-05-24T05:50:59.730Z,11.49
2023-05-24T05:53:27.582Z,11.55
2023-05-24T05:55:55.271Z,11.56
2023-05-24T05:58:22.984Z,11.62
2023-05-24T06:00:50.800Z,11.62
2023-05-24T06:03:21.099Z,11.60
2023-05-24T06:05:48.925Z,11.62
2023-05-24T06:08:16.586Z,11.65
2023-05-24T06:10:44.376Z,11.69
2023-05-24T06:13:12.301Z,11.77
2023-05-24T06:15:40.586Z,11.78
2023-05-24T06:18:08.337Z,11.81
2023-05-24T06:20:37.815Z,11.82
2023-05-24T06:23:06.104Z,11.88
2023-05-24T06:25:34.540Z,11.94
2023-05-24T06:28:02.278Z,11.96
2023-05-24T06:30:30.079Z,11.98
2023-05-24T06:32:58.329Z,12.03
2023-05-24T06:35:26.171Z,12.10
2023-05-24T06:37:55.322Z,12.15
2023-05-24T06:40:23.124Z,12.15
2023-05-24T06:42:50.960Z,12.20
2023-05-24T06:45:18.817Z,12.28
2023-05-24T06:47:46.577Z,12.33
2023-05-24T06:50:14.486Z,12.34
2023-05-24T06:52:42.563Z,12.39
2023-05-24T06:55:11.800Z,12.40
2023-05-24T06:57:39.520Z,12.39
2023-05-24T07:00:12.287Z,12.46
2023-05-24T07:02:40.478Z,12.53
2023-05-24T07:05:12.225Z,12.62
2023-05-24T07:07:40.513Z,12.70
2023-05-24T07:10:09.488Z,12.74
2023-05-24T07:12:39.248Z,12.76
2023-05-24T07:15:08.665Z,12.76
2023-05-24T07:17:36.480Z,12.78
2023-05-24T07:20:07.124Z,12.82
2023-05-24T07:22:35.015Z,12.84
2023-05-24T07:25:02.802Z,12.91
2023-05-24T07:27:30.564Z,12.96
2023-05-24T07:29:59.791Z,13.04
2023-05-24T07:32:27.729Z,13.11
2023-05-24T07:34:55.808Z,13.08
2023-05-24T07:37:24.936Z,13.12
2023-05-24T07:39:53.108Z,13.15
2023-05-24T07:42:21.679Z,13.19
2023-05-24T07:44:49.420Z,13.21
2023-05-24T07:47:18.563Z,13.22
2023-05-24T07:49:46.285Z,13.24
2023-05-24T07:52:14.390Z,13.27
2023-05-24T07:54:42.232Z,13.28
2023-05-24T07:57:09.976Z,13.29
2023-05-24T07:59:37.741Z,13.26
2023-05-24T08:02:05.811Z,13.32
2023-05-24T08:04:34.903Z,13.36
2023-05-24T08:07:03.425Z,13.40
2023-05-24T08:09:33.847Z,13.45
2023-05-24T08:12:01.623Z,13.45
2023-05-24T08:14:29.358Z,13.46
2023-05-24T08:16:57.075Z,13.51
2023-05-24T08:19:24.794Z,13.55
2023-05-24T08:21:53.997Z,13.57
2023-05-24T08:24:22.727Z,13.63
2023-05-24T08:26:51.872Z,13.69
2023-05-24T08:29:19.621Z,13.77
2023-05-24T08:31:47.615Z,13.85
2023-05-24T08:34:15.947Z,13.97
2023-05-24T08:36:43.964Z,14.03
2023-05-24T08:39:13.117Z,14.08
2023-05-24T08:41:41.985Z,14.12
2023-05-24T08:44:09.770Z,14.13
2023-05-24T08:46:38.154Z,14.09
2023-05-24T08:49:07.551Z,14.08
2023-05-24T08:51:38.582Z,14.04
2023-05-24T08:54:06.984Z,14.01
2023-05-24T08:56:36.075Z,14.04
2023-05-24T08:59:03.853Z,14.06
2023-05-24T09:01:33.300Z,14.08
2023-05-24T09:04:03.692Z,14.13
2023-05-24T09:08:40.594Z,14.22
2023-05-24T09:11:10.318Z,14.28
2023-05-24T09:13:38.627Z,14.29
2023-05-24T09:16:07.172Z,14.29
2023-05-24T09:18:34.863Z,14.35
2023-05-24T09:21:02.603Z,14.40
2023-05-24T09:23:30.846Z,14.43
2023-05-24T09:26:00.047Z,14.48
2023-05-24T09:28:27.664Z,14.51
2023-05-24T09:31:00.023Z,14.54
2023-05-24T09:33:30.130Z,14.53
2023-05-24T09:37:32.226Z,14.53
2023-05-24T09:40:00.922Z,14.51
2023-05-24T09:42:30.204Z,14.48
2023-05-24T09:45:01.598Z,14.47
2023-05-24T09:47:33.073Z,14.46
2023-05-24T09:50:01.469Z,14.45
2023-05-24T09:52:31.756Z,14.45
2023-05-24T09:55:01.312Z,14.41
2023-05-24T09:57:29.064Z,14.38
2023-05-24T09:59:57.645Z,14.38
2023-05-24T10:02:27.571Z,14.39
2023-05-24T10:04:59.952Z,14.46
2023-05-24T10:07:28.327Z,14.50
2023-05-24T10:09:58.046Z,14.51
2023-05-24T10:12:25.774Z,14.55
2023-05-24T10:14:53.596Z,14.58
2023-05-24T10:17:21.372Z,14.61
2023-05-24T10:19:49.673Z,14.68
2023-05-24T10:22:17.857Z,14.73
2023-05-24T10:24:48.127Z,14.76
2023-05-24T10:27:22.040Z,14.76
2023-05-24T10:31:55.795Z,14.80
2023-05-24T10:34:23.840Z,14.77
2023-05-24T10:36:51.701Z,14.73
2023-05-24T10:39:22.411Z,14.72
2023-05-24T10:41:50.203Z,14.74
2023-05-24T10:44:20.398Z,14.76
2023-05-24T10:47:09.284Z,14.78
2023-05-24T10:49:37.165Z,14.82
2023-05-24T10:52:08.674Z,14.86
2023-05-24T10:54:39.802Z,14.89
2023-05-24T10:57:10.685Z,14.92
2023-05-24T10:59:39.803Z,14.95
2023-05-24T11:02:13.900Z,14.98
2023-05-24T11:04:43.934Z,15.05
2023-05-24T11:07:13.225Z,15.09
2023-05-24T11:09:46.173Z,15.12
2023-05-24T11:12:16.170Z,15.15
2023-05-24T11:14:48.894Z,15.13
2023-05-24T11:17:18.468Z,15.05
2023-05-24T11:19:48.183Z,15.12
2023-05-24T11:22:16.226Z,15.15
2023-05-24T11:26:53.991Z,15.19
2023-05-24T11:29:22.906Z,15.22
2023-05-24T11:31:52.572Z,15.21
2023-05-24T11:34:20.787Z,15.17
2023-05-24T11:36:52.092Z,15.14
2023-05-24T11:39:19.885Z,15.15
2023-05-24T11:41:48.719Z,15.16
2023-05-24T11:44:20.224Z,15.22
2023-05-24T11:46:48.069Z,15.24
2023-05-24T11:49:17.254Z,15.28
2023-05-24T11:51:45.452Z,15.29
2023-05-24T11:57:29.377Z,15.20
2023-05-24T11:59:58.681Z,15.31
2023-05-24T12:02:26.545Z,15.32
2023-05-24T12:04:55.198Z,15.35
2023-05-24T12:07:24.628Z,15.37
2023-05-24T12:09:52.371Z,15.40
2023-05-24T12:12:26.592Z,15.44
2023-05-24T12:14:59.569Z,15.48
2023-05-24T12:17:27.482Z,15.47
2023-05-24T12:19:55.269Z,15.55
2023-05-24T12:22:29.836Z,15.60
2023-05-24T12:24:58.112Z,15.65
2023-05-24T12:27:37.643Z,15.68
2023-05-24T12:30:10.323Z,15.79
2023-05-24T12:32:38.188Z,15.86
2023-05-24T12:35:06.596Z,15.92
2023-05-24T12:37:34.673Z,15.98
2023-05-24T12:40:05.271Z,16.04
2023-05-24T12:44:39.246Z,16.28
2023-05-24T12:47:09.174Z,16.33
2023-05-24T12:49:37.410Z,16.41
2023-05-24T12:52:06.694Z,16.49
2023-05-24T12:54:35.083Z,16.57
2023-05-24T12:57:03.691Z,16.63
2023-05-24T12:59:31.596Z,16.71
2023-05-24T13:02:00.960Z,16.75
2023-05-24T13:04:30.659Z,16.79
2023-05-24T13:06:58.550Z,16.85
2023-05-24T13:09:26.988Z,16.92
2023-05-24T13:11:55.169Z,16.95
2023-05-24T13:14:23.065Z,16.95
2023-05-24T13:16:50.966Z,16.94
2023-05-24T13:19:20.303Z,16.94
2023-05-24T13:21:48.206Z,16.93
2023-05-24T13:24:17.607Z,16.92
2023-05-24T13:26:46.106Z,16.92
2023-05-24T13:31:45.009Z,17.03
2023-05-24T13:34:13.133Z,17.13
2023-05-24T13:36:43.114Z,17.20
2023-05-24T13:39:15.758Z,17.26
2023-05-24T13:41:44.750Z,17.33
2023-05-24T13:44:12.756Z,17.37
2023-05-24T13:46:40.876Z,17.33
2023-05-24T13:49:09.400Z,17.26
2023-05-24T13:51:37.578Z,17.20
2023-05-24T13:54:09.562Z,17.16
2023-05-24T13:56:38.628Z,17.09
2023-05-24T13:59:08.575Z,17.06
2023-05-24T14:01:37.666Z,16.99
2023-05-24T14:04:06.317Z,16.97
2023-05-24T14:06:34.625Z,16.93
2023-05-24T14:09:02.380Z,16.93
2023-05-24T14:11:32.612Z,16.89
2023-05-24T14:16:31.589Z,16.85
2023-05-24T14:18:59.496Z,16.78
2023-05-24T14:21:27.721Z,16.79
2023-05-24T14:23:55.561Z,16.73
2023-05-24T14:26:23.628Z,16.79
2023-05-24T14:28:56.058Z,16.87
2023-05-24T14:31:25.054Z,16.92
2023-05-24T14:33:53.075Z,16.92
2023-05-24T14:36:20.867Z,16.89
2023-05-24T14:38:48.621Z,16.90
2023-05-24T14:41:16.379Z,16.87
2023-05-24T14:45:02.050Z,16.87
2023-05-24T14:47:29.827Z,16.87
2023-05-24T14:49:57.567Z,16.85
2023-05-24T14:52:25.452Z,16.81
2023-05-24T14:54:53.084Z,16.79
2023-05-24T14:57:20.905Z,16.83
2023-05-24T14:59:48.711Z,16.80
2023-05-24T15:02:17.926Z,16.85
2023-05-24T15:04:46.034Z,16.86
2023-05-24T15:07:13.785Z,16.86
2023-05-24T15:09:41.441Z,16.82
2023-05-24T15:12:09.544Z,16.81
2023-05-24T15:14:37.366Z,16.84
2023-05-24T15:17:05.391Z,16.89
2023-05-24T15:19:34.517Z,16.94
2023-05-24T15:22:02.273Z,16.99
2023-05-24T15:24:30.173Z,17.09
2023-05-24T15:26:57.986Z,17.15
2023-05-24T15:29:25.866Z,17.14
2023-05-24T15:31:53.799Z,17.16
2023-05-24T15:34:23.682Z,17.28
2023-05-24T15:36:53.114Z,17.33
2023-05-24T15:39:21.529Z,17.33
2023-05-24T15:41:49.383Z,17.29
2023-05-24T15:44:17.173Z,17.24
2023-05-24T15:46:44.923Z,17.19
2023-05-24T15:49:12.712Z,17.12
2023-05-24T15:54:46.104Z,17.04
2023-05-24T15:57:14.053Z,17.09
2023-05-24T15:59:41.792Z,17.15
2023-05-24T16:02:10.036Z,17.24
2023-05-24T16:04:37.933Z,17.32
2023-05-24T16:07:05.706Z,17.39
2023-05-24T16:09:33.408Z,17.43
2023-05-24T16:12:02.909Z,17.44
2023-05-24T16:14:30.890Z,17.46
2023-05-24T16:17:00.021Z,17.48
2023-05-24T16:19:29.902Z,17.57
2023-05-24T16:21:57.797Z,17.63
2023-05-24T16:24:25.763Z,17.66
2023-05-24T16:26:53.479Z,17.62
2023-05-24T16:29:22.672Z,17.61
2023-05-24T16:31:50.795Z,17.55
2023-05-24T16:34:18.536Z,17.43
2023-05-24T16:36:47.052Z,17.39
2023-05-24T16:39:14.834Z,17.41
2023-05-24T16:41:42.590Z,17.43
2023-05-24T16:44:10.433Z,17.49
2023-05-24T16:46:39.593Z,17.52
2023-05-24T16:49:07.528Z,17.61
2023-05-24T16:51:35.301Z,17.66
2023-05-24T16:54:03.022Z,17.71
2023-05-24T16:56:30.792Z,17.73
2023-05-24T16:58:58.573Z,17.73
2023-05-24T17:01:26.335Z,17.65
2023-05-24T17:03:55.618Z,17.67
2023-05-24T17:06:23.427Z,17.68
2023-05-24T17:08:51.147Z,17.71
2023-05-24T17:11:19.831Z,17.73
2023-05-24T17:13:48.876Z,17.80
2023-05-24T17:16:16.786Z,17.80
2023-05-24T17:18:44.561Z,17.83
2023-05-24T17:21:13.798Z,17.83
2023-05-24T17:23:41.540Z,17.81
2023-05-24T17:26:09.731Z,17.75
2023-05-24T17:28:37.534Z,17.72
2023-05-24T17:31:05.316Z,17.67
2023-05-24T17:33:33.126Z,17.64
2023-05-24T17:36:02.831Z,17.65
2023-05-24T17:38:33.264Z,17.64
2023-05-24T17:41:01.068Z,17.64
2023-05-24T17:43:32.122Z,17.54
2023-05-24T17:46:06.051Z,17.47
2023-05-24T17:48:35.445Z,17.36
2023-05-24T17:51:04.132Z,17.28
2023-05-24T17:53:34.795Z,17.22
2023-05-24T17:56:03.304Z,17.18
2023-05-24T17:58:36.018Z,17.11
2023-05-24T18:01:05.267Z,17.10
2023-05-24T18:03:33.603Z,17.05
2023-05-24T18:06:03.931Z,17.02
2023-05-24T18:08:33.769Z,17.00
2023-05-24T18:11:03.706Z,17.00
2023-05-24T18:13:31.621Z,16.97
2023-05-24T18:15:59.803Z,16.99
2023-05-24T18:18:27.668Z,16.99
2023-05-24T18:20:55.444Z,17.00
2023-05-24T18:23:23.227Z,16.99
2023-05-24T18:26:00.450Z,17.00
2023-05-24T18:28:29.935Z,16.99
2023-05-24T18:30:57.809Z,17.02
2023-05-24T18:33:25.640Z,17.00
2023-05-24T18:35:53.588Z,16.97
2023-05-24T18:38:21.519Z,16.97
2023-05-24T18:40:49.250Z,16.96
2023-05-24T18:43:18.391Z,16.95
2023-05-24T18:45:46.213Z,16.91
2023-05-24T18:48:13.938Z,16.88
2023-05-24T18:50:41.692Z,16.84
2023-05-24T18:53:09.847Z,16.79
2023-05-24T18:55:37.545Z,16.77
2023-05-24T18:58:06.653Z,16.75
2023-05-24T19:00:35.845Z,16.70
2023-05-24T19:03:03.653Z,16.66
2023-05-24T19:05:31.704Z,16.60
2023-05-24T19:07:59.476Z,16.56
2023-05-24T19:10:27.323Z,16.52
2023-05-24T19:12:55.108Z,16.51
2023-05-24T19:15:23.499Z,16.48
2023-05-24T19:17:55.332Z,16.47
2023-05-24T19:20:23.400Z,16.45
2023-05-24T19:22:51.097Z,16.39
2023-05-24T19:25:19.421Z,16.35
2023-05-24T19:27:59.428Z,16.30
2023-05-24T19:30:28.561Z,16.25
2023-05-24T19:32:57.740Z,16.22
2023-05-24T19:35:25.638Z,16.20
2023-05-24T19:37:53.613Z,16.20
2023-05-24T19:40:22.320Z,16.19
2023-05-24T19:42:50.177Z,16.16
2023-05-24T19:45:17.937Z,16.16
2023-05-24T19:47:46.149Z,16.12
2023-05-24T19:50:15.327Z,16.07
2023-05-24T19:52:43.180Z,16.04
2023-05-24T19:55:11.220Z,16.02
2023-05-24T19:57:38.912Z,16.01
2023-05-24T20:00:07.960Z,15.97
2023-05-24T20:02:36.689Z,15.94
2023-05-24T20:05:05.198Z,15.88
2023-05-24T20:07:34.359Z,15.85
2023-05-24T20:10:05.042Z,15.83
2023-05-24T20:12:34.483Z,15.83
2023-05-24T20:15:02.304Z,15.80
2023-05-24T20:17:30.116Z,15.77
2023-05-24T20:19:57.993Z,15.74
2023-05-24T20:22:25.729Z,15.70
2023-05-24T20:24:54.823Z,15.69
2023-05-24T20:27:22.674Z,15.67
2023-05-24T20:29:51.002Z,15.63
2023-05-24T20:32:18.694Z,15.62
2023-05-24T20:34:46.436Z,15.59
2023-05-24T20:37:14.251Z,15.55
2023-05-24T20:39:41.992Z,15.48
2023-05-24T20:42:11.185Z,15.46
2023-05-24T20:44:38.926Z,15.43
2023-05-24T20:47:07.026Z,15.38
2023-05-24T20:49:36.016Z,15.37
2023-05-24T20:52:03.848Z,15.36
2023-05-24T20:54:31.536Z,15.35
2023-05-24T20:56:59.611Z,15.33
2023-05-24T20:59:29.186Z,15.29
2023-05-24T21:01:56.951Z,15.27
2023-05-24T21:04:24.727Z,15.24
2023-05-24T21:06:52.423Z,15.23
2023-05-24T21:09:20.194Z,15.20
2023-05-24T21:11:48.016Z,15.17
2023-05-24T21:14:15.711Z,15.14
2023-05-24T21:16:45.003Z,15.13
2023-05-24T21:19:12.850Z,15.10
2023-05-24T21:21:40.776Z,15.08
2023-05-24T21:24:08.788Z,15.08
2023-05-24T21:26:36.596Z,15.07
2023-05-24T21:29:04.294Z,15.06
2023-05-24T21:31:32.165Z,15.04
2023-05-24T21:34:01.364Z,15.01
2023-05-24T21:36:29.122Z,14.99
2023-05-24T21:38:57.528Z,14.98
2023-05-24T21:41:26.688Z,14.96
2023-05-24T21:43:54.390Z,14.97
2023-05-24T21:46:22.164Z,14.96
2023-05-24T21:48:50.222Z,14.94
2023-05-24T21:51:19.429Z,14.94
2023-05-24T21:53:47.144Z,14.92
2023-05-24T21:56:14.900Z,14.90
2023-05-24T21:58:42.615Z,14.88
2023-05-24T22:01:10.339Z,14.84
2023-05-24T22:03:38.402Z,14.82
2023-05-24T22:06:06.372Z,14.81
2023-05-24T22:08:35.537Z,14.77
2023-05-24T22:11:03.266Z,14.73
2023-05-24T22:13:30.944Z,14.71
2023-05-24T22:15:58.845Z,14.68
2023-05-24T22:18:28.313Z,14.67
2023-05-24T22:20:58.261Z,14.65
2023-05-24T22:23:26.507Z,14.63
2023-05-24T22:25:55.677Z,14.63
2023-05-24T22:28:24.602Z,14.61
2023-05-24T22:30:52.403Z,14.60
2023-05-24T22:33:20.214Z,14.56
2023-05-24T22:35:48.034Z,14.54
2023-05-24T22:38:15.724Z,14.51
2023-05-24T22:40:43.527Z,14.50
2023-05-24T22:43:12.637Z,14.44
2023-05-24T22:45:40.428Z,14.40
2023-05-24T22:48:08.165Z,14.33
2023-05-24T22:50:35.996Z,14.32
2023-05-24T22:53:03.739Z,14.30
2023-05-24T22:55:31.456Z,14.26
2023-05-24T22:57:59.327Z,14.22
2023-05-24T23:00:28.928Z,14.18
2023-05-24T23:02:56.835Z,14.18
2023-05-24T23:05:24.706Z,14.14
2023-05-24T23:07:52.551Z,14.12
2023-05-24T23:10:20.331Z,14.11
2023-05-24T23:12:48.099Z,14.10
2023-05-24T23:15:18.191Z,14.05
2023-05-24T23:17:48.215Z,14.06
2023-05-24T23:20:16.105Z,14.01
2023-05-24T23:22:43.840Z,13.99
2023-05-24T23:25:11.931Z,13.95
2023-05-24T23:27:40.589Z,13.89
2023-05-24T23:30:09.192Z,13.88
2023-05-24T23:32:36.971Z,13.85
2023-05-24T23:35:06.828Z,13.82
2023-05-24T23:37:34.549Z,13.79
2023-05-24T23:40:06.250Z,13.74
2023-05-24T23:42:34.170Z,13.73
2023-05-24T23:45:02.250Z,13.70
2023-05-24T23:47:29.974Z,13.67
2023-05-24T23:49:57.707Z,13.62
2023-05-24T23:52:27.060Z,13.62
2023-05-24T23:54:54.790Z,13.61
2023-05-24T23:57:24.959Z,13.59
2023-05-24T23:59:52.719Z,13.54
